sensor_id;sensor_type;location;lat;lon;timestamp;temperature;humidity
39325;DHT22;25037;49.488;9.900;2023-03-14T00:00:17;12.30;72.60
39325;DHT22;25037;49.488;9.900;2023-03-14T00:02:44;12.30;72.60
39325;DHT22;25037;49.488;9.900;2023-03-14T00:05:11;12.30;72.60
39325;DHT22;25037;49.488;9.900;2023-03-14T00:07:38;12.30;72.60
39325;DHT22;25037;49.488;9.900;2023-03-14T00:10:09;12.30;72.50
39325;DHT22;25037;49.488;9.900;2023-03-14T00:12:36;12.40;72.50
39325;DHT22;25037;49.488;9.900;2023-03-14T00:15:03;12.40;72.40
39325;DHT22;25037;49.488;9.900;2023-03-14T00:17:31;12.40;72.40
39325;DHT22;25037;49.488;9.900;2023-03-14T00:19:57;12.40;72.40
39325;DHT22;25037;49.488;9.900;2023-03-14T00:22:31;12.50;72.30
39325;DHT22;25037;49.488;9.900;2023-03-14T00:24:58;12.40;72.30
39325;DHT22;25037;49.488;9.900;2023-03-14T00:27:24;12.50;72.30
39325;DHT22;25037;49.488;9.900;2023-03-14T00:29:51;12.50;72.20
39325;DHT22;25037;49.488;9.900;2023-03-14T00:32:18;12.50;72.10
39325;DHT22;25037;49.488;9.900;2023-03-14T00:34:44;12.50;72.20
39325;DHT22;25037;49.488;9.900;2023-03-14T00:37:11;12.50;72.20
39325;DHT22;25037;49.488;9.900;2023-03-14T00:39:38;12.50;72.20
39325;DHT22;25037;49.488;9.900;2023-03-14T00:42:04;12.50;72.20
39325;DHT22;25037;49.488;9.900;2023-03-14T00:44:31;12.50;72.20
39325;DHT22;25037;49.488;9.900;2023-03-14T00:46:58;12.50;72.10
39325;DHT22;25037;49.488;9.900;2023-03-14T00:49:26;12.50;72.00
39325;DHT22;25037;49.488;9.900;2023-03-14T00:51:53;12.50;71.90
39325;DHT22;25037;49.488;9.900;2023-03-14T00:54:19;12.60;71.70
39325;DHT22;25037;49.488;9.900;2023-03-14T00:56:46;12.60;71.60
39325;DHT22;25037;49.488;9.900;2023-03-14T00:59:13;12.60;71.50
39325;DHT22;25037;49.488;9.900;2023-03-14T01:01:41;12.60;71.40
39325;DHT22;25037;49.488;9.900;2023-03-14T01:04:08;12.60;71.30
39325;DHT22;25037;49.488;9.900;2023-03-14T01:06:35;12.60;71.30
39325;DHT22;25037;49.488;9.900;2023-03-14T01:09:02;12.60;71.20
39325;DHT22;25037;49.488;9.900;2023-03-14T01:11:31;12.60;71.10
39325;DHT22;25037;49.488;9.900;2023-03-14T01:13:59;12.70;71.00
39325;DHT22;25037;49.488;9.900;2023-03-14T01:16:28;12.70;71.00
39325;DHT22;25037;49.488;9.900;2023-03-14T01:18:55;12.70;70.90
39325;DHT22;25037;49.488;9.900;2023-03-14T01:21:24;12.60;70.80
39325;DHT22;25037;49.488;9.900;2023-03-14T01:23:52;12.60;70.80
39325;DHT22;25037;49.488;9.900;2023-03-14T01:26:22;12.60;70.70
39325;DHT22;25037;49.488;9.900;2023-03-14T01:28:51;12.60;70.80
39325;DHT22;25037;49.488;9.900;2023-03-14T01:31:18;12.60;70.70
39325;DHT22;25037;49.488;9.900;2023-03-14T01:33:46;12.70;70.70
39325;DHT22;25037;49.488;9.900;2023-03-14T01:36:13;12.70;70.70
39325;DHT22;25037;49.488;9.900;2023-03-14T01:38:40;12.70;70.70
39325;DHT22;25037;49.488;9.900;2023-03-14T01:41:09;12.60;70.60
39325;DHT22;25037;49.488;9.900;2023-03-14T01:43:38;12.60;70.70
39325;DHT22;25037;49.488;9.900;2023-03-14T01:51:02;12.60;70.60
39325;DHT22;25037;49.488;9.900;2023-03-14T01:53:30;12.60;70.60
39325;DHT22;25037;49.488;9.900;2023-03-14T01:55:57;12.60;70.60
39325;DHT22;25037;49.488;9.900;2023-03-14T01:58:26;12.60;70.60
39325;DHT22;25037;49.488;9.900;2023-03-14T02:00:55;12.60;70.60
39325;DHT22;25037;49.488;9.900;2023-03-14T02:03:23;12.60;70.60
39325;DHT22;25037;49.488;9.900;2023-03-14T02:05:53;12.60;70.60
39325;DHT22;25037;49.488;9.900;2023-03-14T02:08:23;12.60;70.60
39325;DHT22;25037;49.488;9.900;2023-03-14T02:10:51;12.60;70.60
39325;DHT22;25037;49.488;9.900;2023-03-14T02:13:19;12.60;70.70
39325;DHT22;25037;49.488;9.900;2023-03-14T02:15:47;12.50;70.70
39325;DHT22;25037;49.488;9.900;2023-03-14T02:18:15;12.50;70.70
39325;DHT22;25037;49.488;9.900;2023-03-14T02:21:01;12.50;70.70
39325;DHT22;25037;49.488;9.900;2023-03-14T02:26:34;12.50;70.80
39325;DHT22;25037;49.488;9.900;2023-03-14T02:29:03;12.50;70.90
39325;DHT22;25037;49.488;9.900;2023-03-14T02:31:29;12.50;70.80
39325;DHT22;25037;49.488;9.900;2023-03-14T02:33:56;12.50;70.90
39325;DHT22;25037;49.488;9.900;2023-03-14T02:36:24;12.50;70.80
39325;DHT22;25037;49.488;9.900;2023-03-14T02:39:11;12.50;70.80
39325;DHT22;25037;49.488;9.900;2023-03-14T02:41:40;12.50;70.80
39325;DHT22;25037;49.488;9.900;2023-03-14T02:44:08;12.50;70.80
39325;DHT22;25037;49.488;9.900;2023-03-14T02:46:35;12.50;70.70
39325;DHT22;25037;49.488;9.900;2023-03-14T02:49:04;12.50;70.60
39325;DHT22;25037;49.488;9.900;2023-03-14T02:51:34;12.50;70.50
39325;DHT22;25037;49.488;9.900;2023-03-14T02:54:01;12.50;70.40
39325;DHT22;25037;49.488;9.900;2023-03-14T02:56:28;12.50;70.30
39325;DHT22;25037;49.488;9.900;2023-03-14T02:58:54;12.60;70.30
39325;DHT22;25037;49.488;9.900;2023-03-14T03:01:21;12.60;70.20
39325;DHT22;25037;49.488;9.900;2023-03-14T03:03:48;12.50;70.20
39325;DHT22;25037;49.488;9.900;2023-03-14T03:06:15;12.50;70.10
39325;DHT22;25037;49.488;9.900;2023-03-14T03:08:41;12.50;70.20
39325;DHT22;25037;49.488;9.900;2023-03-14T03:11:08;12.40;70.20
39325;DHT22;25037;49.488;9.900;2023-03-14T03:13:35;12.40;70.30
39325;DHT22;25037;49.488;9.900;2023-03-14T03:16:02;12.40;70.30
39325;DHT22;25037;49.488;9.900;2023-03-14T03:18:29;12.40;70.30
39325;DHT22;25037;49.488;9.900;2023-03-14T03:21:00;12.40;70.30
39325;DHT22;25037;49.488;9.900;2023-03-14T03:23:27;12.40;70.30
39325;DHT22;25037;49.488;9.900;2023-03-14T03:25:53;12.40;70.20
39325;DHT22;25037;49.488;9.900;2023-03-14T03:28:20;12.50;70.00
39325;DHT22;25037;49.488;9.900;2023-03-14T03:30:47;12.50;70.00
39325;DHT22;25037;49.488;9.900;2023-03-14T03:33:14;12.60;69.90
39325;DHT22;25037;49.488;9.900;2023-03-14T03:35:46;12.60;69.70
39325;DHT22;25037;49.488;9.900;2023-03-14T03:38:14;12.70;69.60
39325;DHT22;25037;49.488;9.900;2023-03-14T03:40:42;12.70;69.50
39325;DHT22;25037;49.488;9.900;2023-03-14T03:43:09;12.70;69.50
39325;DHT22;25037;49.488;9.900;2023-03-14T03:45:35;12.70;69.40
39325;DHT22;25037;49.488;9.900;2023-03-14T03:48:02;12.80;69.40
39325;DHT22;25037;49.488;9.900;2023-03-14T03:50:29;12.80;69.40
39325;DHT22;25037;49.488;9.900;2023-03-14T03:52:55;12.80;69.40
39325;DHT22;25037;49.488;9.900;2023-03-14T03:55:22;12.80;69.40
39325;DHT22;25037;49.488;9.900;2023-03-14T03:57:48;12.70;69.40
39325;DHT22;25037;49.488;9.900;2023-03-14T04:00:15;12.70;69.40
39325;DHT22;25037;49.488;9.900;2023-03-14T04:02:42;12.80;69.30
39325;DHT22;25037;49.488;9.900;2023-03-14T04:05:09;12.70;69.40
39325;DHT22;25037;49.488;9.900;2023-03-14T04:07:35;12.70;69.30
39325;DHT22;25037;49.488;9.900;2023-03-14T04:10:02;12.70;69.30
39325;DHT22;25037;49.488;9.900;2023-03-14T04:12:29;12.70;69.20
39325;DHT22;25037;49.488;9.900;2023-03-14T04:14:55;12.70;69.00
39325;DHT22;25037;49.488;9.900;2023-03-14T04:17:22;12.70;68.90
39325;DHT22;25037;49.488;9.900;2023-03-14T04:19:49;12.70;68.80
39325;DHT22;25037;49.488;9.900;2023-03-14T04:22:17;12.70;68.70
39325;DHT22;25037;49.488;9.900;2023-03-14T04:24:44;12.70;68.60
39325;DHT22;25037;49.488;9.900;2023-03-14T04:27:11;12.70;68.60
39325;DHT22;25037;49.488;9.900;2023-03-14T04:29:37;12.70;68.60
39325;DHT22;25037;49.488;9.900;2023-03-14T04:32:04;12.70;68.60
39325;DHT22;25037;49.488;9.900;2023-03-14T04:34:31;12.70;68.50
39325;DHT22;25037;49.488;9.900;2023-03-14T04:36:58;12.70;68.50
39325;DHT22;25037;49.488;9.900;2023-03-14T04:39:24;12.60;68.40
39325;DHT22;25037;49.488;9.900;2023-03-14T04:41:51;12.60;68.30
39325;DHT22;25037;49.488;9.900;2023-03-14T04:44:18;12.60;68.20
39325;DHT22;25037;49.488;9.900;2023-03-14T04:46:45;12.50;68.20
39325;DHT22;25037;49.488;9.900;2023-03-14T04:49:11;12.50;68.20
39325;DHT22;25037;49.488;9.900;2023-03-14T04:51:38;12.50;68.20
39325;DHT22;25037;49.488;9.900;2023-03-14T04:54:05;12.40;68.20
39325;DHT22;25037;49.488;9.900;2023-03-14T04:56:31;12.40;68.20
39325;DHT22;25037;49.488;9.900;2023-03-14T04:58:58;12.40;68.20
39325;DHT22;25037;49.488;9.900;2023-03-14T05:01:24;12.40;68.10
39325;DHT22;25037;49.488;9.900;2023-03-14T05:03:51;12.40;68.00
39325;DHT22;25037;49.488;9.900;2023-03-14T05:06:18;12.40;67.90
39325;DHT22;25037;49.488;9.900;2023-03-14T05:08:45;12.40;67.90
39325;DHT22;25037;49.488;9.900;2023-03-14T05:11:12;12.30;68.00
39325;DHT22;25037;49.488;9.900;2023-03-14T05:13:39;12.30;67.90
39325;DHT22;25037;49.488;9.900;2023-03-14T05:16:07;12.30;68.00
39325;DHT22;25037;49.488;9.900;2023-03-14T05:18:34;12.30;68.00
39325;DHT22;25037;49.488;9.900;2023-03-14T05:21:01;12.20;68.00
39325;DHT22;25037;49.488;9.900;2023-03-14T05:23:28;12.20;68.10
39325;DHT22;25037;49.488;9.900;2023-03-14T05:25:55;12.10;68.20
39325;DHT22;25037;49.488;9.900;2023-03-14T05:28:22;12.10;68.30
39325;DHT22;25037;49.488;9.900;2023-03-14T05:30:48;12.10;68.40
39325;DHT22;25037;49.488;9.900;2023-03-14T05:33:15;12.10;68.40
39325;DHT22;25037;49.488;9.900;2023-03-14T05:35:42;12.10;68.40
39325;DHT22;25037;49.488;9.900;2023-03-14T05:38:09;12.10;68.40
39325;DHT22;25037;49.488;9.900;2023-03-14T05:40:36;12.10;68.50
39325;DHT22;25037;49.488;9.900;2023-03-14T05:43:02;12.10;68.50
39325;DHT22;25037;49.488;9.900;2023-03-14T05:45:29;12.10;68.50
39325;DHT22;25037;49.488;9.900;2023-03-14T05:47:55;12.10;68.50
39325;DHT22;25037;49.488;9.900;2023-03-14T05:50:22;12.00;68.50
39325;DHT22;25037;49.488;9.900;2023-03-14T05:52:49;12.00;68.40
39325;DHT22;25037;49.488;9.900;2023-03-14T05:55:15;12.00;68.50
39325;DHT22;25037;49.488;9.900;2023-03-14T05:57:42;12.00;68.40
39325;DHT22;25037;49.488;9.900;2023-03-14T06:00:09;12.10;68.30
39325;DHT22;25037;49.488;9.900;2023-03-14T06:02:36;12.10;68.20
39325;DHT22;25037;49.488;9.900;2023-03-14T06:05:03;12.10;68.20
39325;DHT22;25037;49.488;9.900;2023-03-14T06:07:30;12.10;68.20
39325;DHT22;25037;49.488;9.900;2023-03-14T06:09:57;12.10;68.20
39325;DHT22;25037;49.488;9.900;2023-03-14T06:12:25;12.10;68.10
39325;DHT22;25037;49.488;9.900;2023-03-14T06:14:51;12.10;68.00
39325;DHT22;25037;49.488;9.900;2023-03-14T06:17:18;12.10;68.00
39325;DHT22;25037;49.488;9.900;2023-03-14T06:19:44;12.10;67.90
39325;DHT22;25037;49.488;9.900;2023-03-14T06:22:11;12.10;67.80
39325;DHT22;25037;49.488;9.900;2023-03-14T06:24:38;12.20;67.80
39325;DHT22;25037;49.488;9.900;2023-03-14T06:27:05;12.20;67.80
39325;DHT22;25037;49.488;9.900;2023-03-14T06:29:31;12.20;67.60
39325;DHT22;25037;49.488;9.900;2023-03-14T06:31:58;12.30;67.60
39325;DHT22;25037;49.488;9.900;2023-03-14T06:34:25;12.30;67.30
39325;DHT22;25037;49.488;9.900;2023-03-14T06:36:52;12.40;67.10
39325;DHT22;25037;49.488;9.900;2023-03-14T06:39:18;12.40;66.90
39325;DHT22;25037;49.488;9.900;2023-03-14T06:41:45;12.50;66.80
39325;DHT22;25037;49.488;9.900;2023-03-14T06:44:12;12.60;66.50
39325;DHT22;25037;49.488;9.900;2023-03-14T06:46:38;12.70;66.30
39325;DHT22;25037;49.488;9.900;2023-03-14T06:49:05;12.70;66.10
39325;DHT22;25037;49.488;9.900;2023-03-14T06:51:33;12.70;66.00
39325;DHT22;25037;49.488;9.900;2023-03-14T06:54:00;12.70;65.80
39325;DHT22;25037;49.488;9.900;2023-03-14T06:56:27;12.80;65.80
39325;DHT22;25037;49.488;9.900;2023-03-14T06:58:53;12.80;65.70
39325;DHT22;25037;49.488;9.900;2023-03-14T07:01:26;12.80;65.70
39325;DHT22;25037;49.488;9.900;2023-03-14T07:03:54;12.90;65.60
39325;DHT22;25037;49.488;9.900;2023-03-14T07:06:21;12.90;65.50
39325;DHT22;25037;49.488;9.900;2023-03-14T07:08:48;13.10;65.30
39325;DHT22;25037;49.488;9.900;2023-03-14T07:11:15;13.20;65.00
39325;DHT22;25037;49.488;9.900;2023-03-14T07:13:41;13.40;64.60
39325;DHT22;25037;49.488;9.900;2023-03-14T07:16:08;13.60;64.10
39325;DHT22;25037;49.488;9.900;2023-03-14T07:18:35;13.90;63.70
39325;DHT22;25037;49.488;9.900;2023-03-14T07:21:07;14.10;63.30
39325;DHT22;25037;49.488;9.900;2023-03-14T07:23:35;14.10;63.00
39325;DHT22;25037;49.488;9.900;2023-03-14T07:26:02;14.10;63.00
39325;DHT22;25037;49.488;9.900;2023-03-14T07:28:29;14.00;63.00
39325;DHT22;25037;49.488;9.900;2023-03-14T07:30:56;13.90;63.00
39325;DHT22;25037;49.488;9.900;2023-03-14T07:33:23;13.80;63.00
39325;DHT22;25037;49.488;9.900;2023-03-14T07:35:50;13.80;63.00
39325;DHT22;25037;49.488;9.900;2023-03-14T07:38:17;13.80;62.90
39325;DHT22;25037;49.488;9.900;2023-03-14T07:40:48;13.80;62.80
39325;DHT22;25037;49.488;9.900;2023-03-14T07:43:14;14.00;62.80
39325;DHT22;25037;49.488;9.900;2023-03-14T07:45:44;14.20;62.50
39325;DHT22;25037;49.488;9.900;2023-03-14T07:48:11;14.40;62.10
39325;DHT22;25037;49.488;9.900;2023-03-14T07:50:38;14.60;62.00
39325;DHT22;25037;49.488;9.900;2023-03-14T07:53:04;14.70;61.80
39325;DHT22;25037;49.488;9.900;2023-03-14T07:55:31;14.80;61.40
39325;DHT22;25037;49.488;9.900;2023-03-14T07:57:58;15.00;61.00
39325;DHT22;25037;49.488;9.900;2023-03-14T08:00:25;15.20;60.50
39325;DHT22;25037;49.488;9.900;2023-03-14T08:02:51;15.20;60.30
39325;DHT22;25037;49.488;9.900;2023-03-14T08:05:18;15.20;60.00
39325;DHT22;25037;49.488;9.900;2023-03-14T08:07:45;15.20;59.90
39325;DHT22;25037;49.488;9.900;2023-03-14T08:10:12;15.00;59.60
39325;DHT22;25037;49.488;9.900;2023-03-14T08:12:42;15.00;59.60
39325;DHT22;25037;49.488;9.900;2023-03-14T08:15:09;15.10;59.50
39325;DHT22;25037;49.488;9.900;2023-03-14T08:17:35;15.20;59.20
39325;DHT22;25037;49.488;9.900;2023-03-14T08:20:02;15.30;59.00
39325;DHT22;25037;49.488;9.900;2023-03-14T08:22:33;15.50;58.50
39325;DHT22;25037;49.488;9.900;2023-03-14T08:24:59;15.60;58.40
39325;DHT22;25037;49.488;9.900;2023-03-14T08:27:26;15.70;57.90
39325;DHT22;25037;49.488;9.900;2023-03-14T08:29:52;15.70;57.70
39325;DHT22;25037;49.488;9.900;2023-03-14T08:32:19;15.80;57.60
39325;DHT22;25037;49.488;9.900;2023-03-14T08:34:46;15.70;57.50
39325;DHT22;25037;49.488;9.900;2023-03-14T08:37:13;15.60;57.40
39325;DHT22;25037;49.488;9.900;2023-03-14T08:39:52;15.50;57.50
39325;DHT22;25037;49.488;9.900;2023-03-14T08:42:19;15.50;57.70
39325;DHT22;25037;49.488;9.900;2023-03-14T08:44:46;15.50;57.70
39325;DHT22;25037;49.488;9.900;2023-03-14T08:47:13;15.40;57.60
39325;DHT22;25037;49.488;9.900;2023-03-14T08:49:40;15.30;57.70
39325;DHT22;25037;49.488;9.900;2023-03-14T08:52:06;15.30;57.80
39325;DHT22;25037;49.488;9.900;2023-03-14T08:54:33;15.30;57.80
39325;DHT22;25037;49.488;9.900;2023-03-14T08:56:59;15.30;57.90
39325;DHT22;25037;49.488;9.900;2023-03-14T08:59:26;15.30;57.70
39325;DHT22;25037;49.488;9.900;2023-03-14T09:01:53;15.30;57.70
39325;DHT22;25037;49.488;9.900;2023-03-14T09:04:21;15.50;57.60
39325;DHT22;25037;49.488;9.900;2023-03-14T09:06:48;15.50;57.50
39325;DHT22;25037;49.488;9.900;2023-03-14T09:09:14;15.60;57.40
39325;DHT22;25037;49.488;9.900;2023-03-14T09:11:41;15.70;57.10
39325;DHT22;25037;49.488;9.900;2023-03-14T09:14:08;15.80;57.40
39325;DHT22;25037;49.488;9.900;2023-03-14T09:16:34;16.20;57.20
39325;DHT22;25037;49.488;9.900;2023-03-14T09:19:01;16.30;57.00
39325;DHT22;25037;49.488;9.900;2023-03-14T09:21:29;16.50;56.60
39325;DHT22;25037;49.488;9.900;2023-03-14T09:23:55;16.60;56.60
39325;DHT22;25037;49.488;9.900;2023-03-14T09:26:22;16.60;56.50
39325;DHT22;25037;49.488;9.900;2023-03-14T09:28:49;16.50;56.20
39325;DHT22;25037;49.488;9.900;2023-03-14T09:31:16;16.40;56.30
39325;DHT22;25037;49.488;9.900;2023-03-14T09:33:42;16.30;56.50
39325;DHT22;25037;49.488;9.900;2023-03-14T09:36:09;16.10;56.80
39325;DHT22;25037;49.488;9.900;2023-03-14T09:38:36;16.00;57.40
39325;DHT22;25037;49.488;9.900;2023-03-14T09:41:14;16.00;57.80
39325;DHT22;25037;49.488;9.900;2023-03-14T09:43:43;16.00;58.30
39325;DHT22;25037;49.488;9.900;2023-03-14T09:46:12;16.00;58.40
39325;DHT22;25037;49.488;9.900;2023-03-14T09:48:40;16.00;58.40
39325;DHT22;25037;49.488;9.900;2023-03-14T09:51:13;16.00;58.70
39325;DHT22;25037;49.488;9.900;2023-03-14T09:53:46;16.00;59.20
39325;DHT22;25037;49.488;9.900;2023-03-14T09:56:17;16.10;59.00
39325;DHT22;25037;49.488;9.900;2023-03-14T09:58:50;16.10;59.20
39325;DHT22;25037;49.488;9.900;2023-03-14T10:01:28;16.00;59.40
39325;DHT22;25037;49.488;9.900;2023-03-14T10:04:02;15.80;59.40
39325;DHT22;25037;49.488;9.900;2023-03-14T10:06:31;15.70;59.40
39325;DHT22;25037;49.488;9.900;2023-03-14T10:08:57;15.60;59.30
39325;DHT22;25037;49.488;9.900;2023-03-14T10:11:24;15.50;59.50
39325;DHT22;25037;49.488;9.900;2023-03-14T10:14:05;15.40;59.60
39325;DHT22;25037;49.488;9.900;2023-03-14T10:16:44;15.40;59.60
39325;DHT22;25037;49.488;9.900;2023-03-14T10:19:13;15.40;59.60
39325;DHT22;25037;49.488;9.900;2023-03-14T10:21:43;15.40;59.70
39325;DHT22;25037;49.488;9.900;2023-03-14T10:26:58;15.30;59.70
39325;DHT22;25037;49.488;9.900;2023-03-14T10:29:29;15.40;59.80
39325;DHT22;25037;49.488;9.900;2023-03-14T10:32:04;15.30;60.00
39325;DHT22;25037;49.488;9.900;2023-03-14T10:34:34;15.40;60.20
39325;DHT22;25037;49.488;9.900;2023-03-14T10:37:23;15.50;60.30
39325;DHT22;25037;49.488;9.900;2023-03-14T10:39:53;15.70;60.30
39325;DHT22;25037;49.488;9.900;2023-03-14T10:42:29;15.70;60.20
39325;DHT22;25037;49.488;9.900;2023-03-14T10:45:00;15.80;59.60
39325;DHT22;25037;49.488;9.900;2023-03-14T10:47:28;15.90;59.50
39325;DHT22;25037;49.488;9.900;2023-03-14T10:49:56;15.90;59.40
39325;DHT22;25037;49.488;9.900;2023-03-14T10:52:28;16.10;59.90
39325;DHT22;25037;49.488;9.900;2023-03-14T10:55:08;16.20;60.20
39325;DHT22;25037;49.488;9.900;2023-03-14T10:57:39;16.40;59.90
39325;DHT22;25037;49.488;9.900;2023-03-14T11:00:11;16.60;59.40
39325;DHT22;25037;49.488;9.900;2023-03-14T11:02:48;16.90;58.80
39325;DHT22;25037;49.488;9.900;2023-03-14T11:05:25;17.20;58.40
39325;DHT22;25037;49.488;9.900;2023-03-14T11:08:02;17.40;58.00
39325;DHT22;25037;49.488;9.900;2023-03-14T11:10:33;17.60;57.20
39325;DHT22;25037;49.488;9.900;2023-03-14T11:13:21;17.70;56.90
39325;DHT22;25037;49.488;9.900;2023-03-14T11:21:36;18.20;55.70
39325;DHT22;25037;49.488;9.900;2023-03-14T11:24:27;18.30;55.40
39325;DHT22;25037;49.488;9.900;2023-03-14T11:27:03;18.40;55.10
39325;DHT22;25037;49.488;9.900;2023-03-14T11:29:39;18.50;54.80
39325;DHT22;25037;49.488;9.900;2023-03-14T11:32:41;18.50;54.40
39325;DHT22;25037;49.488;9.900;2023-03-14T11:35:29;18.60;54.20
39325;DHT22;25037;49.488;9.900;2023-03-14T11:38:09;18.40;54.00
39325;DHT22;25037;49.488;9.900;2023-03-14T11:40:38;18.10;54.80
39325;DHT22;25037;49.488;9.900;2023-03-14T11:45:39;17.60;56.60
39325;DHT22;25037;49.488;9.900;2023-03-14T11:50:57;17.00;57.80
39325;DHT22;25037;49.488;9.900;2023-03-14T11:53:45;16.80;58.80
39325;DHT22;25037;49.488;9.900;2023-03-14T11:56:24;16.70;58.90
39325;DHT22;25037;49.488;9.900;2023-03-14T11:58:57;16.70;59.20
39325;DHT22;25037;49.488;9.900;2023-03-14T12:01:44;16.60;59.30
39325;DHT22;25037;49.488;9.900;2023-03-14T12:06:50;16.30;59.90
39325;DHT22;25037;49.488;9.900;2023-03-14T12:09:19;16.10;60.30
39325;DHT22;25037;49.488;9.900;2023-03-14T12:12:02;16.00;60.80
39325;DHT22;25037;49.488;9.900;2023-03-14T12:14:37;15.90;61.00
39325;DHT22;25037;49.488;9.900;2023-03-14T12:17:35;15.70;61.50
39325;DHT22;25037;49.488;9.900;2023-03-14T12:20:06;15.70;61.60
39325;DHT22;25037;49.488;9.900;2023-03-14T12:22:44;15.60;62.20
39325;DHT22;25037;49.488;9.900;2023-03-14T12:27:46;15.30;62.40
39325;DHT22;25037;49.488;9.900;2023-03-14T12:30:17;15.20;62.50
39325;DHT22;25037;49.488;9.900;2023-03-14T12:38:55;14.80;62.90
39325;DHT22;25037;49.488;9.900;2023-03-14T12:41:24;14.70;63.10
39325;DHT22;25037;49.488;9.900;2023-03-14T12:43:51;14.60;63.10
39325;DHT22;25037;49.488;9.900;2023-03-14T12:51:40;14.20;63.80
39325;DHT22;25037;49.488;9.900;2023-03-14T12:59:56;13.80;65.50
39325;DHT22;25037;49.488;9.900;2023-03-14T13:02:28;13.60;65.70
39325;DHT22;25037;49.488;9.900;2023-03-14T13:05:12;13.60;66.30
39325;DHT22;25037;49.488;9.900;2023-03-14T13:13:03;13.30;67.30
39325;DHT22;25037;49.488;9.900;2023-03-14T13:15:43;13.30;67.60
39325;DHT22;25037;49.488;9.900;2023-03-14T13:18:14;13.30;67.80
39325;DHT22;25037;49.488;9.900;2023-03-14T13:20:48;13.30;67.70
39325;DHT22;25037;49.488;9.900;2023-03-14T13:23:27;13.30;67.60
39325;DHT22;25037;49.488;9.900;2023-03-14T13:25:54;13.20;67.70
39325;DHT22;25037;49.488;9.900;2023-03-14T13:28:21;13.20;67.50
39325;DHT22;25037;49.488;9.900;2023-03-14T13:31:00;13.30;67.50
39325;DHT22;25037;49.488;9.900;2023-03-14T13:33:27;13.20;67.60
39325;DHT22;25037;49.488;9.900;2023-03-14T13:35:58;13.20;67.50
39325;DHT22;25037;49.488;9.900;2023-03-14T13:38:27;13.00;67.50
39325;DHT22;25037;49.488;9.900;2023-03-14T13:40:56;12.90;67.70
39325;DHT22;25037;49.488;9.900;2023-03-14T13:43:31;12.80;67.80
39325;DHT22;25037;49.488;9.900;2023-03-14T13:46:12;12.80;68.00
39325;DHT22;25037;49.488;9.900;2023-03-14T13:48:45;12.80;68.00
39325;DHT22;25037;49.488;9.900;2023-03-14T13:51:15;12.70;68.00
39325;DHT22;25037;49.488;9.900;2023-03-14T13:53:47;12.70;68.10
39325;DHT22;25037;49.488;9.900;2023-03-14T13:56:19;12.50;68.40
39325;DHT22;25037;49.488;9.900;2023-03-14T13:58:47;12.50;68.60
39325;DHT22;25037;49.488;9.900;2023-03-14T14:01:15;12.40;68.90
39325;DHT22;25037;49.488;9.900;2023-03-14T14:03:45;12.40;69.00
39325;DHT22;25037;49.488;9.900;2023-03-14T14:06:39;12.40;69.00
39325;DHT22;25037;49.488;9.900;2023-03-14T14:09:23;12.40;68.80
39325;DHT22;25037;49.488;9.900;2023-03-14T14:11:56;12.30;69.20
39325;DHT22;25037;49.488;9.900;2023-03-14T14:14:49;12.30;69.10
39325;DHT22;25037;49.488;9.900;2023-03-14T14:17:34;12.30;69.00
39325;DHT22;25037;49.488;9.900;2023-03-14T14:20:04;12.30;69.00
39325;DHT22;25037;49.488;9.900;2023-03-14T14:22:32;12.10;68.80
39325;DHT22;25037;49.488;9.900;2023-03-14T14:25:00;12.00;68.80
39325;DHT22;25037;49.488;9.900;2023-03-14T14:27:37;11.90;69.00
39325;DHT22;25037;49.488;9.900;2023-03-14T14:32:47;11.80;68.80
39325;DHT22;25037;49.488;9.900;2023-03-14T14:35:34;11.80;68.80
39325;DHT22;25037;49.488;9.900;2023-03-14T14:38:02;11.80;68.70
39325;DHT22;25037;49.488;9.900;2023-03-14T14:40:44;11.60;68.50
39325;DHT22;25037;49.488;9.900;2023-03-14T14:43:25;11.60;68.50
39325;DHT22;25037;49.488;9.900;2023-03-14T14:45:54;11.60;68.10
39325;DHT22;25037;49.488;9.900;2023-03-14T14:48:24;11.60;67.80
39325;DHT22;25037;49.488;9.900;2023-03-14T14:51:00;11.50;67.70
39325;DHT22;25037;49.488;9.900;2023-03-14T14:53:41;11.50;67.70
39325;DHT22;25037;49.488;9.900;2023-03-14T14:56:20;11.60;67.50
39325;DHT22;25037;49.488;9.900;2023-03-14T14:58:57;11.70;67.30
39325;DHT22;25037;49.488;9.900;2023-03-14T15:01:37;11.70;66.80
39325;DHT22;25037;49.488;9.900;2023-03-14T15:04:11;11.80;66.30
39325;DHT22;25037;49.488;9.900;2023-03-14T15:06:42;11.90;66.20
39325;DHT22;25037;49.488;9.900;2023-03-14T15:09:13;11.80;65.80
39325;DHT22;25037;49.488;9.900;2023-03-14T15:11:39;11.80;65.50
39325;DHT22;25037;49.488;9.900;2023-03-14T15:14:06;11.70;65.20
39325;DHT22;25037;49.488;9.900;2023-03-14T15:16:33;11.50;64.60
39325;DHT22;25037;49.488;9.900;2023-03-14T15:19:02;11.50;64.30
39325;DHT22;25037;49.488;9.900;2023-03-14T15:21:48;11.40;63.90
39325;DHT22;25037;49.488;9.900;2023-03-14T15:24:15;11.30;63.30
39325;DHT22;25037;49.488;9.900;2023-03-14T15:26:42;11.30;62.90
39325;DHT22;25037;49.488;9.900;2023-03-14T15:29:11;11.30;62.50
39325;DHT22;25037;49.488;9.900;2023-03-14T15:31:39;11.30;62.10
39325;DHT22;25037;49.488;9.900;2023-03-14T15:34:07;11.40;61.80
39325;DHT22;25037;49.488;9.900;2023-03-14T15:36:34;11.50;61.40
39325;DHT22;25037;49.488;9.900;2023-03-14T15:39:04;11.50;61.30
39325;DHT22;25037;49.488;9.900;2023-03-14T15:41:31;11.50;60.90
39325;DHT22;25037;49.488;9.900;2023-03-14T15:43:58;11.50;60.80
39325;DHT22;25037;49.488;9.900;2023-03-14T15:46:25;11.60;60.80
39325;DHT22;25037;49.488;9.900;2023-03-14T15:48:52;11.50;60.10
39325;DHT22;25037;49.488;9.900;2023-03-14T15:51:18;11.60;59.90
39325;DHT22;25037;49.488;9.900;2023-03-14T15:53:45;11.60;59.70
39325;DHT22;25037;49.488;9.900;2023-03-14T15:56:20;11.60;59.10
39325;DHT22;25037;49.488;9.900;2023-03-14T15:58:50;11.70;58.70
39325;DHT22;25037;49.488;9.900;2023-03-14T16:01:17;11.70;58.60
39325;DHT22;25037;49.488;9.900;2023-03-14T16:03:44;11.60;58.60
39325;DHT22;25037;49.488;9.900;2023-03-14T16:06:12;11.60;58.10
39325;DHT22;25037;49.488;9.900;2023-03-14T16:08:39;11.50;57.90
39325;DHT22;25037;49.488;9.900;2023-03-14T16:11:06;11.50;57.80
39325;DHT22;25037;49.488;9.900;2023-03-14T16:13:33;11.40;57.30
39325;DHT22;25037;49.488;9.900;2023-03-14T16:16:01;11.40;57.30
39325;DHT22;25037;49.488;9.900;2023-03-14T16:18:30;11.30;57.40
39325;DHT22;25037;49.488;9.900;2023-03-14T16:20:59;11.30;57.40
39325;DHT22;25037;49.488;9.900;2023-03-14T16:23:27;11.20;57.20
39325;DHT22;25037;49.488;9.900;2023-03-14T16:25:54;11.10;57.30
39325;DHT22;25037;49.488;9.900;2023-03-14T16:28:22;11.20;57.20
39325;DHT22;25037;49.488;9.900;2023-03-14T16:30:48;11.10;56.80
39325;DHT22;25037;49.488;9.900;2023-03-14T16:33:15;11.10;56.70
39325;DHT22;25037;49.488;9.900;2023-03-14T16:35:53;11.10;56.50